sensor_id;sensor_type;location;lat;lon;timestamp;temperature;humidity
61912;DHT22;49973;52.084;5.412;2022-08-21T00:01:53;15.40;99.90
61912;DHT22;49973;52.084;5.412;2022-08-21T00:04:22;15.40;99.90
61912;DHT22;49973;52.084;5.412;2022-08-21T00:06:56;15.40;99.90
61912;DHT22;49973;52.084;5.412;2022-08-21T00:09:24;15.30;99.90
61912;DHT22;49973;52.084;5.412;2022-08-21T00:11:53;15.30;99.90
61912;DHT22;49973;52.084;5.412;2022-08-21T00:14:21;15.30;99.90
61912;DHT22;49973;52.084;5.412;2022-08-21T00:16:51;15.30;99.90
61912;DHT22;49973;52.084;5.412;2022-08-21T00:19:26;15.40;99.90
61912;DHT22;49973;52.084;5.412;2022-08-21T00:21:55;15.40;99.90
61912;DHT22;49973;52.084;5.412;2022-08-21T00:24:25;15.30;99.90
61912;DHT22;49973;52.084;5.412;2022-08-21T00:26:54;15.30;99.90
61912;DHT22;49973;52.084;5.412;2022-08-21T00:29:23;15.30;99.90
61912;DHT22;49973;52.084;5.412;2022-08-21T00:31:53;15.20;99.90
61912;DHT22;49973;52.084;5.412;2022-08-21T00:34:22;15.10;99.90
61912;DHT22;49973;52.084;5.412;2022-08-21T00:36:50;15.20;99.90
61912;DHT22;49973;52.084;5.412;2022-08-21T00:39:19;15.20;99.90
61912;DHT22;49973;52.084;5.412;2022-08-21T00:41:47;15.20;99.90
61912;DHT22;49973;52.084;5.412;2022-08-21T00:44:16;15.10;99.90
61912;DHT22;49973;52.084;5.412;2022-08-21T00:46:44;15.10;99.90
61912;DHT22;49973;52.084;5.412;2022-08-21T00:49:15;15.10;99.90
61912;DHT22;49973;52.084;5.412;2022-08-21T00:51:47;15.10;99.90
61912;DHT22;49973;52.084;5.412;2022-08-21T00:54:17;15.20;99.90
61912;DHT22;49973;52.084;5.412;2022-08-21T00:56:51;15.10;99.90
61912;DHT22;49973;52.084;5.412;2022-08-21T00:59:22;15.10;99.90
61912;DHT22;49973;52.084;5.412;2022-08-21T01:01:51;15.10;99.90
61912;DHT22;49973;52.084;5.412;2022-08-21T01:04:22;15.10;99.90
61912;DHT22;49973;52.084;5.412;2022-08-21T01:06:51;15.10;99.90
61912;DHT22;49973;52.084;5.412;2022-08-21T01:09:19;15.10;99.90
61912;DHT22;49973;52.084;5.412;2022-08-21T01:11:48;15.10;99.90
61912;DHT22;49973;52.084;5.412;2022-08-21T01:14:17;15.10;99.90
61912;DHT22;49973;52.084;5.412;2022-08-21T01:16:50;15.10;99.90
61912;DHT22;49973;52.084;5.412;2022-08-21T01:19:22;15.00;99.90
61912;DHT22;49973;52.084;5.412;2022-08-21T01:21:52;15.00;99.90
61912;DHT22;49973;52.084;5.412;2022-08-21T01:24:21;15.00;99.90
61912;DHT22;49973;52.084;5.412;2022-08-21T01:26:51;15.00;99.90
61912;DHT22;49973;52.084;5.412;2022-08-21T01:29:29;15.00;99.90
61912;DHT22;49973;52.084;5.412;2022-08-21T01:32:02;15.00;99.90
61912;DHT22;49973;52.084;5.412;2022-08-21T01:34:32;14.90;99.90
61912;DHT22;49973;52.084;5.412;2022-08-21T01:37:03;15.10;99.90
61912;DHT22;49973;52.084;5.412;2022-08-21T01:39:33;14.90;99.90
61912;DHT22;49973;52.084;5.412;2022-08-21T01:42:02;15.00;99.90
61912;DHT22;49973;52.084;5.412;2022-08-21T01:44:31;14.90;99.90
61912;DHT22;49973;52.084;5.412;2022-08-21T01:47:02;14.90;99.90
61912;DHT22;49973;52.084;5.412;2022-08-21T01:49:31;14.80;99.90
61912;DHT22;49973;52.084;5.412;2022-08-21T01:52:00;14.90;99.90
61912;DHT22;49973;52.084;5.412;2022-08-21T01:54:30;14.80;99.90
61912;DHT22;49973;52.084;5.412;2022-08-21T01:56:59;14.80;99.90
61912;DHT22;49973;52.084;5.412;2022-08-21T01:59:29;14.80;99.90
61912;DHT22;49973;52.084;5.412;2022-08-21T02:01:57;14.80;99.90
61912;DHT22;49973;52.084;5.412;2022-08-21T02:04:26;14.80;99.90
61912;DHT22;49973;52.084;5.412;2022-08-21T02:06:54;14.80;99.90
61912;DHT22;49973;52.084;5.412;2022-08-21T02:09:23;14.70;99.90
61912;DHT22;49973;52.084;5.412;2022-08-21T02:11:52;14.80;99.90
61912;DHT22;49973;52.084;5.412;2022-08-21T02:14:21;14.70;99.90
61912;DHT22;49973;52.084;5.412;2022-08-21T02:16:59;14.80;99.90
61912;DHT22;49973;52.084;5.412;2022-08-21T02:19:36;14.70;99.90
61912;DHT22;49973;52.084;5.412;2022-08-21T02:22:08;14.70;99.90
61912;DHT22;49973;52.084;5.412;2022-08-21T02:24:37;14.70;99.90
61912;DHT22;49973;52.084;5.412;2022-08-21T02:27:23;14.70;99.90
61912;DHT22;49973;52.084;5.412;2022-08-21T02:29:54;14.70;99.90
61912;DHT22;49973;52.084;5.412;2022-08-21T02:32:22;14.70;99.90
61912;DHT22;49973;52.084;5.412;2022-08-21T02:34:51;14.70;99.90
61912;DHT22;49973;52.084;5.412;2022-08-21T02:37:19;14.60;99.90
61912;DHT22;49973;52.084;5.412;2022-08-21T02:39:48;14.60;99.90
61912;DHT22;49973;52.084;5.412;2022-08-21T02:42:17;14.60;99.90
61912;DHT22;49973;52.084;5.412;2022-08-21T02:44:47;14.60;99.90
61912;DHT22;49973;52.084;5.412;2022-08-21T02:47:15;14.50;99.90
61912;DHT22;49973;52.084;5.412;2022-08-21T02:49:44;14.50;99.90
61912;DHT22;49973;52.084;5.412;2022-08-21T02:52:12;14.50;99.90
61912;DHT22;49973;52.084;5.412;2022-08-21T02:54:41;14.50;99.90
61912;DHT22;49973;52.084;5.412;2022-08-21T02:57:10;14.50;99.90
61912;DHT22;49973;52.084;5.412;2022-08-21T02:59:38;14.50;99.90
61912;DHT22;49973;52.084;5.412;2022-08-21T03:02:09;14.50;99.90
61912;DHT22;49973;52.084;5.412;2022-08-21T03:04:38;14.40;99.90
61912;DHT22;49973;52.084;5.412;2022-08-21T03:07:12;14.50;99.90
61912;DHT22;49973;52.084;5.412;2022-08-21T03:09:42;14.40;99.90
61912;DHT22;49973;52.084;5.412;2022-08-21T03:12:22;14.50;99.90
61912;DHT22;49973;52.084;5.412;2022-08-21T03:14:50;14.40;99.90
61912;DHT22;49973;52.084;5.412;2022-08-21T03:17:20;14.40;99.90
61912;DHT22;49973;52.084;5.412;2022-08-21T03:19:56;14.50;99.90
61912;DHT22;49973;52.084;5.412;2022-08-21T03:22:25;14.40;99.90
61912;DHT22;49973;52.084;5.412;2022-08-21T03:24:57;14.50;99.90
61912;DHT22;49973;52.084;5.412;2022-08-21T03:27:26;14.50;99.90
61912;DHT22;49973;52.084;5.412;2022-08-21T03:29:56;14.40;99.90
61912;DHT22;49973;52.084;5.412;2022-08-21T03:32:26;14.50;99.90
61912;DHT22;49973;52.084;5.412;2022-08-21T03:34:54;14.40;99.90
61912;DHT22;49973;52.084;5.412;2022-08-21T03:37:23;14.50;99.90
61912;DHT22;49973;52.084;5.412;2022-08-21T03:39:52;14.40;99.90
61912;DHT22;49973;52.084;5.412;2022-08-21T03:42:21;14.50;99.90
61912;DHT22;49973;52.084;5.412;2022-08-21T03:44:50;14.50;99.90
61912;DHT22;49973;52.084;5.412;2022-08-21T03:47:18;14.50;99.90
61912;DHT22;49973;52.084;5.412;2022-08-21T03:49:49;14.50;99.90
61912;DHT22;49973;52.084;5.412;2022-08-21T03:52:18;14.50;99.90
61912;DHT22;49973;52.084;5.412;2022-08-21T03:54:46;14.40;99.90
61912;DHT22;49973;52.084;5.412;2022-08-21T03:57:15;14.50;99.90
61912;DHT22;49973;52.084;5.412;2022-08-21T03:59:44;14.40;99.90
61912;DHT22;49973;52.084;5.412;2022-08-21T04:02:16;14.40;99.90
61912;DHT22;49973;52.084;5.412;2022-08-21T04:04:46;14.40;99.90
61912;DHT22;49973;52.084;5.412;2022-08-21T04:07:16;14.40;99.90
61912;DHT22;49973;52.084;5.412;2022-08-21T04:09:44;14.40;99.90
61912;DHT22;49973;52.084;5.412;2022-08-21T04:12:13;14.30;99.90
61912;DHT22;49973;52.084;5.412;2022-08-21T04:14:42;14.30;99.90
61912;DHT22;49973;52.084;5.412;2022-08-21T04:17:10;14.30;99.90
61912;DHT22;49973;52.084;5.412;2022-08-21T04:19:39;14.30;99.90
61912;DHT22;49973;52.084;5.412;2022-08-21T04:22:07;14.30;99.90
61912;DHT22;49973;52.084;5.412;2022-08-21T04:24:37;14.30;99.90
61912;DHT22;49973;52.084;5.412;2022-08-21T04:27:05;14.30;99.90
61912;DHT22;49973;52.084;5.412;2022-08-21T04:29:34;14.30;99.90
61912;DHT22;49973;52.084;5.412;2022-08-21T04:32:06;14.30;99.90
61912;DHT22;49973;52.084;5.412;2022-08-21T04:34:34;14.30;99.90
61912;DHT22;49973;52.084;5.412;2022-08-21T04:37:03;14.30;99.90
61912;DHT22;49973;52.084;5.412;2022-08-21T04:39:32;14.30;99.90
61912;DHT22;49973;52.084;5.412;2022-08-21T04:42:02;14.30;99.90
61912;DHT22;49973;52.084;5.412;2022-08-21T04:44:32;14.30;99.90
61912;DHT22;49973;52.084;5.412;2022-08-21T04:47:00;14.30;99.90
61912;DHT22;49973;52.084;5.412;2022-08-21T04:49:29;14.30;99.90
61912;DHT22;49973;52.084;5.412;2022-08-21T04:51:58;14.30;99.90
61912;DHT22;49973;52.084;5.412;2022-08-21T04:54:27;14.40;99.90
61912;DHT22;49973;52.084;5.412;2022-08-21T04:57:00;14.30;99.90
61912;DHT22;49973;52.084;5.412;2022-08-21T04:59:40;14.30;99.90
61912;DHT22;49973;52.084;5.412;2022-08-21T05:02:10;14.30;99.90
61912;DHT22;49973;52.084;5.412;2022-08-21T05:04:44;14.20;99.90
61912;DHT22;49973;52.084;5.412;2022-08-21T05:07:16;14.30;99.90
61912;DHT22;49973;52.084;5.412;2022-08-21T05:10:06;14.30;99.90
61912;DHT22;49973;52.084;5.412;2022-08-21T05:12:35;14.30;99.90
61912;DHT22;49973;52.084;5.412;2022-08-21T05:15:06;14.30;99.90
61912;DHT22;49973;52.084;5.412;2022-08-21T05:17:39;14.40;99.90
61912;DHT22;49973;52.084;5.412;2022-08-21T05:20:09;14.40;99.90
61912;DHT22;49973;52.084;5.412;2022-08-21T05:22:38;14.40;99.90
61912;DHT22;49973;52.084;5.412;2022-08-21T05:25:08;14.40;99.90
61912;DHT22;49973;52.084;5.412;2022-08-21T05:27:37;14.40;99.90
61912;DHT22;49973;52.084;5.412;2022-08-21T05:30:11;14.50;99.90
61912;DHT22;49973;52.084;5.412;2022-08-21T05:32:39;14.50;99.90
61912;DHT22;49973;52.084;5.412;2022-08-21T05:35:08;14.60;99.90
61912;DHT22;49973;52.084;5.412;2022-08-21T05:37:38;14.50;99.90
61912;DHT22;49973;52.084;5.412;2022-08-21T05:40:07;14.60;99.90
61912;DHT22;49973;52.084;5.412;2022-08-21T05:42:49;14.60;99.90
61912;DHT22;49973;52.084;5.412;2022-08-21T05:45:23;14.60;99.90
61912;DHT22;49973;52.084;5.412;2022-08-21T05:48:11;14.70;99.90
61912;DHT22;49973;52.084;5.412;2022-08-21T05:50:40;14.70;99.90
61912;DHT22;49973;52.084;5.412;2022-08-21T05:53:09;14.80;99.90
61912;DHT22;49973;52.084;5.412;2022-08-21T05:55:39;14.90;99.90
61912;DHT22;49973;52.084;5.412;2022-08-21T05:58:13;14.90;99.90
61912;DHT22;49973;52.084;5.412;2022-08-21T06:00:45;15.00;99.90
61912;DHT22;49973;52.084;5.412;2022-08-21T06:03:17;15.00;99.90
61912;DHT22;49973;52.084;5.412;2022-08-21T06:05:46;15.10;99.90
61912;DHT22;49973;52.084;5.412;2022-08-21T06:08:16;15.20;99.90
61912;DHT22;49973;52.084;5.412;2022-08-21T06:10:45;15.30;99.90
61912;DHT22;49973;52.084;5.412;2022-08-21T06:13:15;15.50;99.90
61912;DHT22;49973;52.084;5.412;2022-08-21T06:15:45;15.50;99.90
61912;DHT22;49973;52.084;5.412;2022-08-21T06:18:14;15.60;99.90
61912;DHT22;49973;52.084;5.412;2022-08-21T06:20:43;15.80;99.90
61912;DHT22;49973;52.084;5.412;2022-08-21T06:23:11;15.90;99.90
61912;DHT22;49973;52.084;5.412;2022-08-21T06:25:40;16.10;99.90
61912;DHT22;49973;52.084;5.412;2022-08-21T06:28:09;16.20;99.90
61912;DHT22;49973;52.084;5.412;2022-08-21T06:30:39;16.40;99.90
61912;DHT22;49973;52.084;5.412;2022-08-21T06:33:09;16.70;99.90
61912;DHT22;49973;52.084;5.412;2022-08-21T06:35:37;17.30;99.90
61912;DHT22;49973;52.084;5.412;2022-08-21T06:38:08;17.70;99.90
61912;DHT22;49973;52.084;5.412;2022-08-21T06:40:36;18.30;99.90
61912;DHT22;49973;52.084;5.412;2022-08-21T06:43:15;18.80;99.90
61912;DHT22;49973;52.084;5.412;2022-08-21T06:45:44;19.10;99.90
61912;DHT22;49973;52.084;5.412;2022-08-21T06:48:14;19.40;99.90
61912;DHT22;49973;52.084;5.412;2022-08-21T06:50:46;19.60;99.90
61912;DHT22;49973;52.084;5.412;2022-08-21T06:53:16;19.80;99.90
61912;DHT22;49973;52.084;5.412;2022-08-21T06:55:45;20.00;99.90
61912;DHT22;49973;52.084;5.412;2022-08-21T06:58:15;20.30;99.90
61912;DHT22;49973;52.084;5.412;2022-08-21T07:00:47;20.60;99.90
61912;DHT22;49973;52.084;5.412;2022-08-21T07:03:19;21.00;99.90
61912;DHT22;49973;52.084;5.412;2022-08-21T07:05:47;21.30;99.90
61912;DHT22;49973;52.084;5.412;2022-08-21T07:08:16;21.50;99.90
61912;DHT22;49973;52.084;5.412;2022-08-21T07:10:45;21.60;99.90
61912;DHT22;49973;52.084;5.412;2022-08-21T07:13:15;21.60;99.90
61912;DHT22;49973;52.084;5.412;2022-08-21T07:15:44;21.70;99.90
61912;DHT22;49973;52.084;5.412;2022-08-21T07:18:13;21.60;99.90
61912;DHT22;49973;52.084;5.412;2022-08-21T07:20:43;21.70;99.90
61912;DHT22;49973;52.084;5.412;2022-08-21T07:23:15;21.60;99.90
61912;DHT22;49973;52.084;5.412;2022-08-21T07:25:50;21.60;99.90
61912;DHT22;49973;52.084;5.412;2022-08-21T07:28:18;21.60;99.90
61912;DHT22;49973;52.084;5.412;2022-08-21T07:30:51;21.70;99.90
61912;DHT22;49973;52.084;5.412;2022-08-21T07:33:20;21.70;99.90
61912;DHT22;49973;52.084;5.412;2022-08-21T07:35:50;21.70;99.90
61912;DHT22;49973;52.084;5.412;2022-08-21T07:38:19;21.80;99.90
61912;DHT22;49973;52.084;5.412;2022-08-21T07:40:49;21.80;99.90
61912;DHT22;49973;52.084;5.412;2022-08-21T07:43:19;21.90;99.90
61912;DHT22;49973;52.084;5.412;2022-08-21T07:45:48;21.90;99.90
61912;DHT22;49973;52.084;5.412;2022-08-21T07:48:17;22.00;99.90
61912;DHT22;49973;52.084;5.412;2022-08-21T07:50:45;22.20;99.90
61912;DHT22;49973;52.084;5.412;2022-08-21T07:53:16;22.20;99.90
61912;DHT22;49973;52.084;5.412;2022-08-21T07:55:44;22.40;99.90
61912;DHT22;49973;52.084;5.412;2022-08-21T07:58:13;22.40;99.90
61912;DHT22;49973;52.084;5.412;2022-08-21T08:00:41;22.50;99.90
61912;DHT22;49973;52.084;5.412;2022-08-21T08:03:10;22.60;99.90
61912;DHT22;49973;52.084;5.412;2022-08-21T08:05:38;22.60;99.90
61912;DHT22;49973;52.084;5.412;2022-08-21T08:08:07;22.60;99.90
61912;DHT22;49973;52.084;5.412;2022-08-21T08:10:38;22.70;99.90
61912;DHT22;49973;52.084;5.412;2022-08-21T08:13:06;22.80;99.90
61912;DHT22;49973;52.084;5.412;2022-08-21T08:15:37;22.90;99.90
61912;DHT22;49973;52.084;5.412;2022-08-21T08:18:05;22.90;99.90
61912;DHT22;49973;52.084;5.412;2022-08-21T08:20:34;23.10;99.90
61912;DHT22;49973;52.084;5.412;2022-08-21T08:23:02;23.10;99.90
61912;DHT22;49973;52.084;5.412;2022-08-21T08:25:31;23.30;99.90
61912;DHT22;49973;52.084;5.412;2022-08-21T08:28:05;23.40;99.90
61912;DHT22;49973;52.084;5.412;2022-08-21T08:30:44;23.60;99.90
61912;DHT22;49973;52.084;5.412;2022-08-21T08:33:13;23.70;99.90
61912;DHT22;49973;52.084;5.412;2022-08-21T08:35:42;23.90;99.90
61912;DHT22;49973;52.084;5.412;2022-08-21T08:38:12;24.10;99.90
61912;DHT22;49973;52.084;5.412;2022-08-21T08:40:52;24.30;99.90
61912;DHT22;49973;52.084;5.412;2022-08-21T08:43:23;24.60;99.90
61912;DHT22;49973;52.084;5.412;2022-08-21T08:45:54;24.80;99.90
61912;DHT22;49973;52.084;5.412;2022-08-21T08:48:36;25.10;99.90
61912;DHT22;49973;52.084;5.412;2022-08-21T08:51:13;25.00;99.90
61912;DHT22;49973;52.084;5.412;2022-08-21T08:53:50;25.30;99.90
61912;DHT22;49973;52.084;5.412;2022-08-21T08:56:25;25.30;99.90
61912;DHT22;49973;52.084;5.412;2022-08-21T08:58:59;25.20;99.90
61912;DHT22;49973;52.084;5.412;2022-08-21T09:01:30;25.20;99.90
61912;DHT22;49973;52.084;5.412;2022-08-21T09:04:05;25.30;99.90
61912;DHT22;49973;52.084;5.412;2022-08-21T09:06:42;25.50;99.90
61912;DHT22;49973;52.084;5.412;2022-08-21T09:09:22;25.60;99.90
61912;DHT22;49973;52.084;5.412;2022-08-21T09:12:00;25.80;99.90
61912;DHT22;49973;52.084;5.412;2022-08-21T09:14:45;26.10;99.90
61912;DHT22;49973;52.084;5.412;2022-08-21T09:17:25;26.30;99.90
61912;DHT22;49973;52.084;5.412;2022-08-21T09:20:08;26.50;99.90
61912;DHT22;49973;52.084;5.412;2022-08-21T09:22:44;26.80;99.90
61912;DHT22;49973;52.084;5.412;2022-08-21T09:25:21;26.80;99.90
61912;DHT22;49973;52.084;5.412;2022-08-21T09:27:50;26.80;99.90
61912;DHT22;49973;52.084;5.412;2022-08-21T09:30:26;26.70;99.90
61912;DHT22;49973;52.084;5.412;2022-08-21T09:32:55;26.70;99.90
61912;DHT22;49973;52.084;5.412;2022-08-21T09:35:24;26.80;99.90
61912;DHT22;49973;52.084;5.412;2022-08-21T09:37:55;27.10;99.90
61912;DHT22;49973;52.084;5.412;2022-08-21T09:40:31;27.10;99.90
61912;DHT22;49973;52.084;5.412;2022-08-21T09:43:01;27.40;99.90
61912;DHT22;49973;52.084;5.412;2022-08-21T09:45:33;27.10;99.90
61912;DHT22;49973;52.084;5.412;2022-08-21T09:48:10;27.00;99.90
61912;DHT22;49973;52.084;5.412;2022-08-21T09:50:39;26.70;99.90
61912;DHT22;49973;52.084;5.412;2022-08-21T09:53:16;26.40;99.90
61912;DHT22;49973;52.084;5.412;2022-08-21T09:55:51;26.20;99.90
61912;DHT22;49973;52.084;5.412;2022-08-21T09:58:41;26.10;99.90
61912;DHT22;49973;52.084;5.412;2022-08-21T10:01:16;26.20;99.90
61912;DHT22;49973;52.084;5.412;2022-08-21T10:03:49;26.40;99.90
61912;DHT22;49973;52.084;5.412;2022-08-21T10:06:24;26.50;99.90
61912;DHT22;49973;52.084;5.412;2022-08-21T10:09:04;26.70;99.90
61912;DHT22;49973;52.084;5.412;2022-08-21T10:11:34;26.80;99.90
61912;DHT22;49973;52.084;5.412;2022-08-21T10:14:11;26.80;99.90
61912;DHT22;49973;52.084;5.412;2022-08-21T10:16:50;26.80;99.90
61912;DHT22;49973;52.084;5.412;2022-08-21T10:19:29;26.80;99.90
61912;DHT22;49973;52.084;5.412;2022-08-21T10:22:06;26.90;99.90
61912;DHT22;49973;52.084;5.412;2022-08-21T10:24:44;27.00;99.90
61912;DHT22;49973;52.084;5.412;2022-08-21T10:27:22;27.10;99.90
61912;DHT22;49973;52.084;5.412;2022-08-21T10:29:59;27.20;99.90
61912;DHT22;49973;52.084;5.412;2022-08-21T10:32:43;27.40;99.90
61912;DHT22;49973;52.084;5.412;2022-08-21T10:35:22;27.60;99.90
61912;DHT22;49973;52.084;5.412;2022-08-21T10:38:03;27.70;99.90
61912;DHT22;49973;52.084;5.412;2022-08-21T10:40:42;27.80;99.90
61912;DHT22;49973;52.084;5.412;2022-08-21T10:43:21;28.10;99.90
61912;DHT22;49973;52.084;5.412;2022-08-21T10:45:57;27.80;99.90
61912;DHT22;49973;52.084;5.412;2022-08-21T10:48:41;27.70;99.90
61912;DHT22;49973;52.084;5.412;2022-08-21T10:51:17;27.60;99.90
61912;DHT22;49973;52.084;5.412;2022-08-21T10:54:03;27.60;99.90
61912;DHT22;49973;52.084;5.412;2022-08-21T10:56:36;27.60;99.90
61912;DHT22;49973;52.084;5.412;2022-08-21T10:59:22;27.80;99.90
61912;DHT22;49973;52.084;5.412;2022-08-21T11:01:55;27.80;99.90
61912;DHT22;49973;52.084;5.412;2022-08-21T11:04:31;28.00;99.90
61912;DHT22;49973;52.084;5.412;2022-08-21T11:07:20;28.00;99.90
61912;DHT22;49973;52.084;5.412;2022-08-21T11:09:51;28.00;99.90
61912;DHT22;49973;52.084;5.412;2022-08-21T11:12:27;28.10;99.90
61912;DHT22;49973;52.084;5.412;2022-08-21T11:15:03;28.30;99.90
61912;DHT22;49973;52.084;5.412;2022-08-21T11:17:37;28.50;99.90
61912;DHT22;49973;52.084;5.412;2022-08-21T11:20:13;28.60;99.90
61912;DHT22;49973;52.084;5.412;2022-08-21T11:22:48;28.90;99.90
61912;DHT22;49973;52.084;5.412;2022-08-21T11:25:26;29.10;99.90
61912;DHT22;49973;52.084;5.412;2022-08-21T11:28:16;29.30;99.90
61912;DHT22;49973;52.084;5.412;2022-08-21T11:30:55;29.50;99.90
61912;DHT22;49973;52.084;5.412;2022-08-21T11:33:46;29.70;99.90
61912;DHT22;49973;52.084;5.412;2022-08-21T11:36:23;29.90;99.90
61912;DHT22;49973;52.084;5.412;2022-08-21T11:39:01;30.00;99.90
61912;DHT22;49973;52.084;5.412;2022-08-21T11:41:34;30.10;99.90
61912;DHT22;49973;52.084;5.412;2022-08-21T11:44:10;30.30;99.90
61912;DHT22;49973;52.084;5.412;2022-08-21T11:46:48;30.20;99.90
61912;DHT22;49973;52.084;5.412;2022-08-21T11:49:35;29.80;99.90
61912;DHT22;49973;52.084;5.412;2022-08-21T11:52:13;29.80;99.90
61912;DHT22;49973;52.084;5.412;2022-08-21T11:54:48;29.70;99.90
61912;DHT22;49973;52.084;5.412;2022-08-21T11:57:21;29.80;99.90
61912;DHT22;49973;52.084;5.412;2022-08-21T11:59:57;29.90;99.90
61912;DHT22;49973;52.084;5.412;2022-08-21T12:02:32;29.90;99.90
61912;DHT22;49973;52.084;5.412;2022-08-21T12:05:04;29.90;99.90
61912;DHT22;49973;52.084;5.412;2022-08-21T12:07:38;29.90;99.90
61912;DHT22;49973;52.084;5.412;2022-08-21T12:10:10;29.70;99.90
61912;DHT22;49973;52.084;5.412;2022-08-21T12:12:40;29.30;99.90
61912;DHT22;49973;52.084;5.412;2022-08-21T12:15:24;28.90;99.90
61912;DHT22;49973;52.084;5.412;2022-08-21T12:17:56;28.70;99.90
61912;DHT22;49973;52.084;5.412;2022-08-21T12:20:39;28.70;99.90
61912;DHT22;49973;52.084;5.412;2022-08-21T12:23:25;28.70;99.90
61912;DHT22;49973;52.084;5.412;2022-08-21T12:26:18;28.80;99.90
61912;DHT22;49973;52.084;5.412;2022-08-21T12:28:48;28.80;99.90
61912;DHT22;49973;52.084;5.412;2022-08-21T12:31:18;28.70;99.90
61912;DHT22;49973;52.084;5.412;2022-08-21T12:33:56;28.30;99.90
61912;DHT22;49973;52.084;5.412;2022-08-21T12:36:33;27.90;99.90
61912;DHT22;49973;52.084;5.412;2022-08-21T12:39:13;27.50;99.90
61912;DHT22;49973;52.084;5.412;2022-08-21T12:41:47;27.20;99.90
61912;DHT22;49973;52.084;5.412;2022-08-21T12:44:21;27.00;99.90
61912;DHT22;49973;52.084;5.412;2022-08-21T12:46:56;26.60;99.90
61912;DHT22;49973;52.084;5.412;2022-08-21T12:49:31;26.40;99.90
61912;DHT22;49973;52.084;5.412;2022-08-21T12:52:04;26.30;99.90
61912;DHT22;49973;52.084;5.412;2022-08-21T12:54:40;26.50;99.90
61912;DHT22;49973;52.084;5.412;2022-08-21T12:57:18;26.90;99.90
61912;DHT22;49973;52.084;5.412;2022-08-21T12:59:53;27.30;99.90
61912;DHT22;49973;52.084;5.412;2022-08-21T13:02:25;27.90;99.90
61912;DHT22;49973;52.084;5.412;2022-08-21T13:04:54;28.40;99.90
61912;DHT22;49973;52.084;5.412;2022-08-21T13:07:29;28.50;99.90
61912;DHT22;49973;52.084;5.412;2022-08-21T13:10:04;28.70;99.90
61912;DHT22;49973;52.084;5.412;2022-08-21T13:12:34;28.90;99.90
61912;DHT22;49973;52.084;5.412;2022-08-21T13:15:05;29.20;99.90
61912;DHT22;49973;52.084;5.412;2022-08-21T13:17:38;29.50;99.90
61912;DHT22;49973;52.084;5.412;2022-08-21T13:20:10;29.80;99.90
61912;DHT22;49973;52.084;5.412;2022-08-21T13:22:46;29.90;99.90
61912;DHT22;49973;52.084;5.412;2022-08-21T13:25:19;30.00;99.90
61912;DHT22;49973;52.084;5.412;2022-08-21T13:27:58;30.20;99.90
61912;DHT22;49973;52.084;5.412;2022-08-21T13:30:27;30.30;99.90
61912;DHT22;49973;52.084;5.412;2022-08-21T13:33:01;30.50;99.90
61912;DHT22;49973;52.084;5.412;2022-08-21T13:35:36;30.70;99.90
61912;DHT22;49973;52.084;5.412;2022-08-21T13:38:05;30.70;99.90
61912;DHT22;49973;52.084;5.412;2022-08-21T13:40:44;30.80;99.90
61912;DHT22;49973;52.084;5.412;2022-08-21T13:43:17;30.90;99.90
61912;DHT22;49973;52.084;5.412;2022-08-21T13:45:49;30.90;99.90
61912;DHT22;49973;52.084;5.412;2022-08-21T13:48:19;30.70;99.90
61912;DHT22;49973;52.084;5.412;2022-08-21T13:50:48;30.50;99.90
61912;DHT22;49973;52.084;5.412;2022-08-21T13:53:23;30.10;99.90
61912;DHT22;49973;52.084;5.412;2022-08-21T13:55:53;29.80;99.90
61912;DHT22;49973;52.084;5.412;2022-08-21T13:58:29;29.60;99.90
61912;DHT22;49973;52.084;5.412;2022-08-21T14:00:59;29.50;99.90
61912;DHT22;49973;52.084;5.412;2022-08-21T14:03:35;29.40;99.90
61912;DHT22;49973;52.084;5.412;2022-08-21T14:06:11;29.40;99.90
61912;DHT22;49973;52.084;5.412;2022-08-21T14:08:42;29.30;99.90
61912;DHT22;49973;52.084;5.412;2022-08-21T14:11:17;29.30;99.90
61912;DHT22;49973;52.084;5.412;2022-08-21T14:13:48;29.40;99.90
61912;DHT22;49973;52.084;5.412;2022-08-21T14:16:20;29.40;99.90
61912;DHT22;49973;52.084;5.412;2022-08-21T14:18:52;29.40;99.90
61912;DHT22;49973;52.084;5.412;2022-08-21T14:21:30;29.30;99.90
61912;DHT22;49973;52.084;5.412;2022-08-21T14:24:02;29.40;99.90
61912;DHT22;49973;52.084;5.412;2022-08-21T14:26:34;29.20;99.90
61912;DHT22;49973;52.084;5.412;2022-08-21T14:29:08;29.10;99.90
61912;DHT22;49973;52.084;5.412;2022-08-21T14:31:37;29.00;99.90
61912;DHT22;49973;52.084;5.412;2022-08-21T14:34:11;28.90;99.90
61912;DHT22;49973;52.084;5.412;2022-08-21T14:36:47;28.70;99.90
61912;DHT22;49973;52.084;5.412;2022-08-21T14:39:15;28.40;99.90
61912;DHT22;49973;52.084;5.412;2022-08-21T14:41:45;28.10;99.90
61912;DHT22;49973;52.084;5.412;2022-08-21T14:44:16;27.90;99.90
61912;DHT22;49973;52.084;5.412;2022-08-21T14:46:46;27.60;99.90
61912;DHT22;49973;52.084;5.412;2022-08-21T14:49:24;27.40;99.90
61912;DHT22;49973;52.084;5.412;2022-08-21T14:51:54;27.10;99.90
61912;DHT22;49973;52.084;5.412;2022-08-21T14:54:26;26.90;99.90
61912;DHT22;49973;52.084;5.412;2022-08-21T14:57:00;26.60;99.90
61912;DHT22;49973;52.084;5.412;2022-08-21T14:59:30;26.50;99.90
61912;DHT22;49973;52.084;5.412;2022-08-21T15:02:00;26.30;99.90
61912;DHT22;49973;52.084;5.412;2022-08-21T15:04:28;26.10;99.90
61912;DHT22;49973;52.084;5.412;2022-08-21T15:06:57;26.10;99.90
61912;DHT22;49973;52.084;5.412;2022-08-21T15:09:26;25.90;99.90
61912;DHT22;49973;52.084;5.412;2022-08-21T15:11:57;25.80;99.90
61912;DHT22;49973;52.084;5.412;2022-08-21T15:14:30;25.70;99.90
61912;DHT22;49973;52.084;5.412;2022-08-21T15:16:58;25.70;99.90
61912;DHT22;49973;52.084;5.412;2022-08-21T15:19:27;25.60;99.90
61912;DHT22;49973;52.084;5.412;2022-08-21T15:21:56;25.50;99.90
61912;DHT22;49973;52.084;5.412;2022-08-21T15:24:25;25.40;99.90
61912;DHT22;49973;52.084;5.412;2022-08-21T15:26:55;25.30;99.90
61912;DHT22;49973;52.084;5.412;2022-08-21T15:29:23;25.20;99.90
61912;DHT22;49973;52.084;5.412;2022-08-21T15:32:02;25.10;99.90
61912;DHT22;49973;52.084;5.412;2022-08-21T15:34:31;25.10;99.90
61912;DHT22;49973;52.084;5.412;2022-08-21T15:37:00;25.10;99.90
61912;DHT22;49973;52.084;5.412;2022-08-21T15:39:28;24.90;99.90
61912;DHT22;49973;52.084;5.412;2022-08-21T15:42:04;24.90;99.90
61912;DHT22;49973;52.084;5.412;2022-08-21T15:44:38;24.90;99.90
61912;DHT22;49973;52.084;5.412;2022-08-21T15:47:11;24.90;99.90
61912;DHT22;49973;52.084;5.412;2022-08-21T15:49:40;24.90;99.90
61912;DHT22;49973;52.084;5.412;2022-08-21T15:52:12;24.80;99.90
61912;DHT22;49973;52.084;5.412;2022-08-21T15:54:41;24.80;99.90
61912;DHT22;49973;52.084;5.412;2022-08-21T15:57:10;24.80;99.90
61912;DHT22;49973;52.084;5.412;2022-08-21T15:59:42;24.80;99.90
61912;DHT22;49973;52.084;5.412;2022-08-21T16:02:14;24.90;99.90